createdAt,value
2023-05-02T00:00:28.760Z,37.37
2023-05-02T00:02:55.693Z,37.36
2023-05-02T00:05:22.571Z,37.21
2023-05-02T00:07:50.689Z,37.27
2023-05-02T00:10:17.799Z,37.22
2023-05-02T00:12:44.370Z,37.32
2023-05-02T00:15:10.967Z,37.17
2023-05-02T00:17:41.166Z,37.44
2023-05-02T00:20:11.674Z,37.36
2023-05-02T00:22:38.745Z,37.46
2023-05-02T00:25:06.197Z,37.34
2023-05-02T00:27:33.542Z,37.39
2023-05-02T00:30:00.487Z,37.54
2023-05-02T00:32:28.211Z,37.59
2023-05-02T00:34:55.352Z,37.55
2023-05-02T00:37:25.827Z,37.61
2023-05-02T00:39:52.485Z,37.66
2023-05-02T00:42:19.268Z,37.82
2023-05-02T00:44:46.403Z,37.93
2023-05-02T00:47:14.509Z,37.95
2023-05-02T00:49:41.598Z,38.21
2023-05-02T00:52:08.585Z,37.98
2023-05-02T00:54:37.718Z,38.14
2023-05-02T00:57:04.283Z,38.22
2023-05-02T00:59:31.450Z,38.11
2023-05-02T01:02:10.560Z,38.14
2023-05-02T01:05:10.930Z,38.13
2023-05-02T01:07:59.213Z,38.29
2023-05-02T01:10:50.979Z,38.26
2023-05-02T01:13:23.748Z,38.35
2023-05-02T01:15:51.140Z,38.46
2023-05-02T01:18:21.161Z,38.47
2023-05-02T01:20:49.256Z,38.62
2023-05-02T01:23:30.536Z,38.68
2023-05-02T01:26:23.112Z,38.56
2023-05-02T01:28:58.933Z,38.65
2023-05-02T01:31:27.190Z,38.76
2023-05-02T01:33:54.486Z,38.50
2023-05-02T01:36:21.618Z,38.65
2023-05-02T01:38:48.218Z,38.74
2023-05-02T01:41:14.928Z,38.99
2023-05-02T01:43:41.563Z,39.03
2023-05-02T01:46:10.495Z,39.12
2023-05-02T01:48:37.563Z,39.17
2023-05-02T01:51:04.180Z,39.07
2023-05-02T01:53:31.315Z,39.25
2023-05-02T01:55:57.925Z,39.19
2023-05-02T01:58:26.518Z,39.14
2023-05-02T02:00:53.218Z,39.22
2023-05-02T02:03:20.001Z,39.34
2023-05-02T02:05:47.157Z,39.38
2023-05-02T02:08:13.738Z,39.36
2023-05-02T02:10:40.967Z,39.39
2023-05-02T02:13:19.580Z,39.50
2023-05-02T02:15:48.460Z,39.59
2023-05-02T02:18:19.503Z,39.67
2023-05-02T02:20:48.352Z,39.73
2023-05-02T02:23:15.498Z,39.68
2023-05-02T02:25:43.004Z,39.90
2023-05-02T02:28:09.988Z,40.04
2023-05-02T02:30:36.822Z,39.93
2023-05-02T02:33:03.994Z,39.94
2023-05-02T02:35:35.553Z,40.26
2023-05-02T02:38:24.365Z,40.26
2023-05-02T02:41:02.047Z,40.44
2023-05-02T02:43:46.373Z,40.63
2023-05-02T02:46:35.097Z,40.68
2023-05-02T02:49:23.844Z,40.81
2023-05-02T02:51:53.902Z,41.21
2023-05-02T02:54:33.969Z,41.19
2023-05-02T02:57:28.843Z,41.09
2023-05-02T03:00:06.926Z,41.33
2023-05-02T03:02:34.085Z,41.26
2023-05-02T03:05:00.880Z,41.46
2023-05-02T03:07:28.368Z,41.66
2023-05-02T03:09:55.625Z,41.91
2023-05-02T03:12:22.530Z,41.90
2023-05-02T03:14:49.737Z,42.10
2023-05-02T03:17:17.462Z,42.25
2023-05-02T03:19:44.514Z,42.34
2023-05-02T03:22:11.849Z,42.39
2023-05-02T03:24:38.915Z,42.62
2023-05-02T03:27:06.302Z,42.73
2023-05-02T03:29:35.563Z,42.98
2023-05-02T03:32:02.859Z,43.13
2023-05-02T03:34:29.878Z,43.09
2023-05-02T03:36:57.567Z,43.07
2023-05-02T03:39:25.349Z,43.43
2023-05-02T03:41:52.061Z,43.34
2023-05-02T03:44:19.401Z,43.54
2023-05-02T03:46:46.960Z,43.69
2023-05-02T03:49:13.689Z,43.86
2023-05-02T03:51:41.330Z,43.90
2023-05-02T03:54:09.385Z,44.21
2023-05-02T03:56:36.760Z,44.38
2023-05-02T03:59:23.682Z,44.45
2023-05-02T04:01:50.850Z,44.65
2023-05-02T04:04:20.080Z,44.82
2023-05-02T04:06:50.800Z,44.81
2023-05-02T04:09:18.558Z,44.92
2023-05-02T04:11:51.611Z,44.96
2023-05-02T04:14:18.503Z,45.23
2023-05-02T04:16:49.632Z,45.31
2023-05-02T04:19:19.903Z,45.73
2023-05-02T04:21:46.507Z,45.42
2023-05-02T04:24:14.277Z,45.55
2023-05-02T04:26:41.403Z,45.52
2023-05-02T04:29:10.898Z,45.40
2023-05-02T04:31:38.391Z,45.54
2023-05-02T04:34:06.468Z,45.44
2023-05-02T04:36:39.558Z,45.03
2023-05-02T04:39:07.955Z,44.53
2023-05-02T04:41:36.697Z,44.34
2023-05-02T04:44:06.012Z,44.04
2023-05-02T04:46:33.874Z,43.62
2023-05-02T04:49:01.091Z,43.07
2023-05-02T04:51:28.687Z,42.45
2023-05-02T04:53:56.073Z,41.79
2023-05-02T04:56:23.066Z,40.93
2023-05-02T04:58:50.916Z,40.24
2023-05-02T05:01:17.798Z,39.77
2023-05-02T05:03:45.938Z,39.09
2023-05-02T05:06:13.025Z,38.15
2023-05-02T05:08:40.186Z,36.62
2023-05-02T05:11:07.374Z,35.88
2023-05-02T05:13:35.356Z,35.33
2023-05-02T05:16:03.409Z,35.18
2023-05-02T05:18:39.687Z,35.14
2023-05-02T05:21:07.657Z,34.32
2023-05-02T05:23:35.167Z,33.49
2023-05-02T05:26:14.960Z,33.20
2023-05-02T05:28:45.062Z,32.89
2023-05-02T05:31:16.686Z,32.72
2023-05-02T05:33:47.100Z,32.18
2023-05-02T05:36:14.400Z,31.99
2023-05-02T05:38:41.086Z,31.48
2023-05-02T05:41:10.486Z,30.95
2023-05-02T05:43:40.275Z,30.64
2023-05-02T05:46:07.365Z,29.83
2023-05-02T05:48:36.316Z,29.51
2023-05-02T05:51:04.876Z,28.89
2023-05-02T05:53:32.275Z,28.33
2023-05-02T05:56:08.057Z,27.96
2023-05-02T05:58:35.302Z,26.69
2023-05-02T06:01:02.274Z,25.45
2023-05-02T06:03:29.499Z,24.91
2023-05-02T06:05:56.803Z,24.42
2023-05-02T06:08:23.761Z,24.32
2023-05-02T06:10:50.503Z,23.26
2023-05-02T06:13:17.815Z,22.76
2023-05-02T06:15:45.237Z,22.54
2023-05-02T06:18:12.136Z,22.02
2023-05-02T06:20:39.308Z,22.20
2023-05-02T06:23:05.966Z,21.36
2023-05-02T06:25:33.482Z,21.18
2023-05-02T06:28:00.167Z,21.10
2023-05-02T06:30:26.935Z,20.99
2023-05-02T06:32:53.628Z,20.10
2023-05-02T06:35:20.336Z,19.51
2023-05-02T06:37:47.047Z,19.65
2023-05-02T06:40:13.913Z,19.41
2023-05-02T06:42:40.742Z,18.91
2023-05-02T06:45:07.960Z,19.01
2023-05-02T06:47:34.984Z,18.45
2023-05-02T06:50:01.958Z,18.09
2023-05-02T06:52:29.594Z,17.89
2023-05-02T06:54:57.489Z,17.72
2023-05-02T06:57:24.445Z,17.63
2023-05-02T06:59:51.476Z,17.24
2023-05-02T07:02:18.355Z,17.54
2023-05-02T07:04:45.501Z,17.26
2023-05-02T07:07:12.562Z,17.04
2023-05-02T07:09:40.316Z,16.49
2023-05-02T07:12:07.270Z,16.47
2023-05-02T07:14:35.266Z,16.32
2023-05-02T07:17:02.198Z,16.29
2023-05-02T07:19:33.048Z,16.39
2023-05-02T07:22:00.780Z,16.19
2023-05-02T07:24:27.513Z,15.92
2023-05-02T07:26:54.802Z,15.62
2023-05-02T07:29:21.407Z,14.91
2023-05-02T07:31:48.077Z,14.88
2023-05-02T07:34:14.757Z,15.09
2023-05-02T07:36:41.625Z,14.80
2023-05-02T07:39:08.553Z,14.37
2023-05-02T07:41:35.809Z,14.35
2023-05-02T07:44:02.406Z,14.61
2023-05-02T07:46:29.816Z,14.43
2023-05-02T07:48:56.595Z,14.00
2023-05-02T07:51:23.296Z,13.49
2023-05-02T07:53:52.417Z,13.07
2023-05-02T07:56:19.439Z,13.31
2023-05-02T07:58:46.139Z,13.65
2023-05-02T08:01:12.831Z,14.18
2023-05-02T08:03:39.940Z,14.37
2023-05-02T08:06:07.902Z,14.44
2023-05-02T08:08:35.547Z,14.34
2023-05-02T08:11:02.491Z,13.97
2023-05-02T08:13:29.440Z,13.84
2023-05-02T08:15:57.626Z,13.61
2023-05-02T08:18:25.234Z,13.52
2023-05-02T08:20:52.469Z,13.22
2023-05-02T08:23:19.360Z,13.19
2023-05-02T08:25:46.038Z,13.48
2023-05-02T08:28:13.574Z,13.30
2023-05-02T08:30:40.705Z,12.90
2023-05-02T08:33:07.504Z,13.02
2023-05-02T08:35:34.227Z,12.95
2023-05-02T08:38:01.481Z,12.38
2023-05-02T08:40:40.939Z,11.94
2023-05-02T08:43:08.852Z,12.12
2023-05-02T08:45:40.959Z,12.13
2023-05-02T08:48:12.384Z,11.87
2023-05-02T08:50:40.905Z,11.85
2023-05-02T08:53:08.888Z,11.71
2023-05-02T08:55:39.194Z,11.84
2023-05-02T08:58:06.813Z,11.47
2023-05-02T09:00:37.690Z,11.48
2023-05-02T09:03:11.167Z,11.48
2023-05-02T09:05:41.442Z,11.47
2023-05-02T09:08:10.711Z,11.30
2023-05-02T09:10:37.819Z,11.72
2023-05-02T09:13:36.034Z,12.13
2023-05-02T09:16:03.876Z,12.25
2023-05-02T09:18:34.723Z,12.44
2023-05-02T09:21:05.961Z,12.37
2023-05-02T09:23:35.688Z,12.13
2023-05-02T09:26:13.514Z,12.11
2023-05-02T09:28:42.165Z,12.44
2023-05-02T09:31:11.011Z,12.35
2023-05-02T09:33:38.424Z,12.52
2023-05-02T09:36:06.658Z,12.88
2023-05-02T09:38:34.158Z,12.44
2023-05-02T09:41:03.306Z,12.53
2023-05-02T09:43:31.336Z,12.26
2023-05-02T09:46:07.544Z,12.20
2023-05-02T09:48:55.938Z,12.27
2023-05-02T09:51:23.934Z,12.32
2023-05-02T09:53:51.327Z,12.48
2023-05-02T09:56:18.576Z,12.38
2023-05-02T09:58:45.931Z,12.28
2023-05-02T10:01:16.712Z,12.10
2023-05-02T10:03:49.129Z,12.07
2023-05-02T10:06:18.593Z,12.14
2023-05-02T10:08:46.787Z,11.91
2023-05-02T10:11:13.594Z,12.19
2023-05-02T10:13:42.166Z,12.10
2023-05-02T10:16:08.853Z,12.59
2023-05-02T10:18:46.659Z,12.77
2023-05-02T10:21:16.927Z,12.57
2023-05-02T10:23:43.660Z,12.49
2023-05-02T10:26:14.017Z,12.65
2023-05-02T10:28:41.641Z,12.95
2023-05-02T10:31:13.038Z,12.91
2023-05-02T10:33:40.176Z,13.38
2023-05-02T10:36:08.821Z,14.05
2023-05-02T10:38:36.308Z,14.76
2023-05-02T10:44:58.452Z,14.64
2023-05-02T10:47:26.412Z,14.42
2023-05-02T10:49:58.512Z,14.94
2023-05-02T10:52:30.227Z,14.63
2023-05-02T10:55:17.464Z,15.04
2023-05-02T10:57:59.435Z,15.27
2023-05-02T11:00:31.392Z,15.99
2023-05-02T11:02:58.264Z,15.81
2023-05-02T11:05:25.788Z,15.59
2023-05-02T11:08:14.653Z,15.38
2023-05-02T11:10:41.373Z,15.87
2023-05-02T11:13:08.870Z,15.59
2023-05-02T11:15:42.242Z,15.95
2023-05-02T11:18:12.407Z,15.91
2023-05-02T11:20:40.580Z,15.80
2023-05-02T11:23:13.495Z,15.95
2023-05-02T11:25:42.836Z,16.28
2023-05-02T11:28:32.620Z,16.32
2023-05-02T11:30:59.947Z,16.68
2023-05-02T11:33:27.962Z,16.91
2023-05-02T11:35:56.502Z,16.98
2023-05-02T11:38:23.275Z,17.46
2023-05-02T11:41:02.132Z,17.25
2023-05-02T11:43:31.608Z,17.03
2023-05-02T11:46:00.945Z,16.98
2023-05-02T11:48:27.739Z,17.41
2023-05-02T11:50:56.320Z,16.97
2023-05-02T11:53:28.251Z,17.16
2023-05-02T11:55:59.594Z,17.24
2023-05-02T11:58:34.673Z,17.74
2023-05-02T12:01:14.997Z,17.59
2023-05-02T12:03:48.259Z,17.56
2023-05-02T12:06:18.269Z,17.50
2023-05-02T12:08:45.168Z,18.20
2023-05-02T12:11:15.627Z,18.01
2023-05-02T12:13:47.186Z,18.06
2023-05-02T12:16:13.960Z,18.65
2023-05-02T12:18:40.918Z,18.45
2023-05-02T12:21:07.901Z,18.68
2023-05-02T12:23:58.934Z,18.91
2023-05-02T12:26:35.453Z,18.93
2023-05-02T12:29:02.407Z,19.01
2023-05-02T12:31:30.762Z,18.84
2023-05-02T12:33:59.505Z,18.75
2023-05-02T12:36:30.070Z,19.13
2023-05-02T12:39:02.179Z,19.26
2023-05-02T12:41:37.600Z,19.43
2023-05-02T12:44:07.810Z,19.31
2023-05-02T12:46:35.805Z,19.52
2023-05-02T12:49:08.684Z,19.30
2023-05-02T12:51:35.956Z,19.46
2023-05-02T12:54:03.306Z,19.56
2023-05-02T12:56:34.196Z,19.82
2023-05-02T12:59:03.515Z,20.07
2023-05-02T13:01:31.138Z,20.16
2023-05-02T13:03:58.683Z,20.25
2023-05-02T13:06:25.727Z,20.30
2023-05-02T13:08:52.356Z,20.84
2023-05-02T13:11:20.035Z,20.71
2023-05-02T13:13:46.701Z,20.77
2023-05-02T13:16:13.577Z,20.95
2023-05-02T13:18:40.816Z,20.92
2023-05-02T13:21:07.638Z,20.83
2023-05-02T13:23:34.553Z,21.08
2023-05-02T13:26:01.260Z,21.21
2023-05-02T13:28:32.557Z,21.49
2023-05-02T13:30:59.260Z,21.78
2023-05-02T13:33:25.962Z,21.78
2023-05-02T13:35:52.554Z,21.73
2023-05-02T13:38:19.242Z,21.76
2023-05-02T13:40:46.037Z,22.02
2023-05-02T13:43:12.787Z,22.12
2023-05-02T13:45:39.888Z,22.25
2023-05-02T13:48:06.866Z,22.37
2023-05-02T13:50:36.733Z,22.28
2023-05-02T13:53:03.525Z,22.32
2023-05-02T13:55:30.376Z,22.68
2023-05-02T13:57:56.985Z,22.31
2023-05-02T14:00:23.625Z,22.71
2023-05-02T14:02:50.542Z,22.70
2023-05-02T14:05:17.341Z,22.50
2023-05-02T14:07:44.104Z,22.78
2023-05-02T14:10:10.993Z,22.64
2023-05-02T14:12:37.901Z,23.00
2023-05-02T14:15:05.476Z,22.73
2023-05-02T14:17:32.628Z,22.40
2023-05-02T14:19:59.545Z,22.41
2023-05-02T14:22:26.419Z,22.23
2023-05-02T14:24:53.071Z,22.10
2023-05-02T14:27:19.843Z,22.58
2023-05-02T14:29:47.262Z,22.61
2023-05-02T14:32:14.292Z,22.88
2023-05-02T14:34:41.350Z,23.03
2023-05-02T14:37:08.556Z,23.06
2023-05-02T14:39:36.352Z,22.83
2023-05-02T14:42:03.909Z,22.67
2023-05-02T14:44:30.676Z,22.86
2023-05-02T14:46:57.339Z,22.91
2023-05-02T14:49:24.825Z,22.87
2023-05-02T14:51:51.905Z,23.13
2023-05-02T14:54:19.682Z,23.35
2023-05-02T14:56:46.744Z,23.07
2023-05-02T14:59:13.446Z,22.63
2023-05-02T15:01:40.305Z,22.74
2023-05-02T15:04:08.342Z,23.20
2023-05-02T15:06:35.941Z,23.24
2023-05-02T15:09:04.362Z,22.93
2023-05-02T15:11:31.200Z,23.03
2023-05-02T15:13:59.635Z,23.08
2023-05-02T15:16:26.552Z,23.08
2023-05-02T15:18:53.207Z,23.39
2023-05-02T15:21:19.906Z,23.25
2023-05-02T15:23:47.018Z,23.26
2023-05-02T15:26:13.626Z,23.30
2023-05-02T15:28:40.274Z,23.65
2023-05-02T15:31:06.994Z,23.87
2023-05-02T15:33:34.126Z,24.22
2023-05-02T15:36:00.808Z,24.49
2023-05-02T15:38:27.777Z,24.46
2023-05-02T15:40:55.160Z,24.79
2023-05-02T15:43:22.055Z,24.73
2023-05-02T15:45:53.528Z,24.82
2023-05-02T15:48:20.701Z,24.82
2023-05-02T15:50:47.622Z,25.00
2023-05-02T15:53:15.322Z,25.21
2023-05-02T15:55:42.579Z,25.53
2023-05-02T15:58:09.425Z,25.65
2023-05-02T16:00:36.545Z,25.65
2023-05-02T16:03:04.092Z,25.90
2023-05-02T16:05:31.787Z,26.05
2023-05-02T16:07:58.570Z,26.25
2023-05-02T16:10:25.178Z,26.63
2023-05-02T16:12:52.526Z,26.76
2023-05-02T16:15:19.921Z,27.08
2023-05-02T16:17:48.419Z,26.96
2023-05-02T16:20:15.907Z,26.94
2023-05-02T16:22:46.305Z,27.06
2023-05-02T16:25:13.575Z,27.47
2023-05-02T16:27:40.492Z,27.45
2023-05-02T16:30:07.760Z,27.86
2023-05-02T16:32:36.698Z,27.89
2023-05-02T16:35:07.699Z,28.04
2023-05-02T16:37:35.134Z,28.12
2023-05-02T16:40:04.779Z,28.29
2023-05-02T16:42:32.551Z,28.61
2023-05-02T16:44:59.313Z,28.46
2023-05-02T16:47:27.266Z,28.77
2023-05-02T16:49:57.679Z,29.06
2023-05-02T16:52:25.093Z,29.14
2023-05-02T16:54:51.792Z,29.45
2023-05-02T16:57:20.345Z,29.61
2023-05-02T16:59:47.905Z,29.80
2023-05-02T17:02:15.088Z,30.13
2023-05-02T17:04:41.787Z,30.32
2023-05-02T17:07:08.442Z,30.62
2023-05-02T17:09:38.337Z,30.76
2023-05-02T17:12:09.713Z,30.93
2023-05-02T17:14:38.895Z,31.15
2023-05-02T17:17:05.550Z,31.42
2023-05-02T17:19:32.410Z,31.59
2023-05-02T17:21:59.287Z,31.67
2023-05-02T17:24:26.050Z,31.89
2023-05-02T17:26:52.715Z,32.05
2023-05-02T17:29:19.317Z,32.26
2023-05-02T17:31:46.433Z,32.39
2023-05-02T17:34:13.101Z,32.46
2023-05-02T17:36:41.505Z,32.49
2023-05-02T17:39:08.951Z,32.86
2023-05-02T17:41:36.195Z,33.18
2023-05-02T17:44:04.264Z,33.35
2023-05-02T17:46:32.403Z,33.48
2023-05-02T17:49:00.252Z,33.71
2023-05-02T17:51:27.058Z,33.70
2023-05-02T17:53:53.782Z,34.19
2023-05-02T17:56:20.622Z,34.28
2023-05-02T17:58:48.318Z,34.48
2023-05-02T18:01:16.851Z,34.73
2023-05-02T18:03:44.221Z,34.75
2023-05-02T18:06:17.961Z,34.91
2023-05-02T18:08:44.905Z,34.99
2023-05-02T18:11:18.049Z,35.24
2023-05-02T18:13:44.977Z,35.22
2023-05-02T18:16:13.032Z,35.41
2023-05-02T18:18:40.035Z,35.46
2023-05-02T18:21:06.621Z,35.73
2023-05-02T18:23:33.517Z,35.79
2023-05-02T18:26:00.700Z,36.06
2023-05-02T18:28:27.467Z,35.99
2023-05-02T18:30:54.190Z,35.99
2023-05-02T18:33:20.830Z,36.04
2023-05-02T18:35:48.029Z,36.11
2023-05-02T18:38:15.209Z,36.28
2023-05-02T18:40:42.108Z,36.45
2023-05-02T18:43:08.676Z,36.48
2023-05-02T18:45:35.445Z,36.43
2023-05-02T18:48:02.801Z,36.55
2023-05-02T18:50:29.773Z,36.65
2023-05-02T18:52:56.863Z,36.77
2023-05-02T18:55:25.075Z,36.88
2023-05-02T18:57:52.082Z,36.96
2023-05-02T19:00:19.801Z,37.09
2023-05-02T19:02:47.067Z,37.22
2023-05-02T19:05:14.416Z,37.34
2023-05-02T19:07:41.788Z,37.43
2023-05-02T19:10:10.384Z,37.54
2023-05-02T19:12:37.508Z,37.72
2023-05-02T19:15:05.957Z,37.81
2023-05-02T19:17:32.758Z,37.87
2023-05-02T19:19:59.734Z,38.02
2023-05-02T19:22:27.085Z,38.04
2023-05-02T19:24:53.710Z,38.25
2023-05-02T19:27:20.276Z,38.32
2023-05-02T19:29:52.602Z,38.33
2023-05-02T19:32:21.421Z,38.51
2023-05-02T19:34:48.032Z,38.65
2023-05-02T19:37:14.762Z,38.78
2023-05-02T19:39:41.524Z,38.93
2023-05-02T19:42:08.732Z,39.00
2023-05-02T19:44:35.406Z,39.27
2023-05-02T19:47:02.197Z,39.63
2023-05-02T19:49:28.929Z,39.62
2023-05-02T19:51:55.542Z,39.76
2023-05-02T19:54:22.115Z,39.84
2023-05-02T19:56:48.789Z,40.08
2023-05-02T19:59:15.433Z,40.28
2023-05-02T20:01:42.093Z,40.49
2023-05-02T20:04:08.927Z,40.76
2023-05-02T20:06:36.155Z,40.99
2023-05-02T20:09:03.136Z,41.32
2023-05-02T20:11:30.313Z,41.44
2023-05-02T20:13:57.122Z,41.66
2023-05-02T20:16:24.078Z,41.87
2023-05-02T20:18:52.202Z,42.13
2023-05-02T20:21:18.884Z,42.41
2023-05-02T20:23:45.854Z,42.59
2023-05-02T20:26:13.524Z,42.77
2023-05-02T20:28:40.180Z,42.97
2023-05-02T20:31:07.416Z,43.06
2023-05-02T20:33:44.535Z,43.22
2023-05-02T20:36:14.109Z,43.29
2023-05-02T20:38:41.979Z,43.53
2023-05-02T20:41:11.756Z,43.66
2023-05-02T20:43:39.190Z,43.78
2023-05-02T20:46:11.165Z,43.93
2023-05-02T20:48:37.895Z,44.16
2023-05-02T20:51:04.545Z,44.28
2023-05-02T20:53:31.639Z,44.28
2023-05-02T20:55:58.418Z,44.46
2023-05-02T20:58:25.422Z,44.62
2023-05-02T21:00:52.049Z,44.80
2023-05-02T21:03:19.054Z,44.85
2023-05-02T21:05:51.508Z,44.92
2023-05-02T21:08:18.584Z,45.21
2023-05-02T21:10:45.461Z,45.15
2023-05-02T21:13:12.665Z,45.31
2023-05-02T21:15:39.695Z,45.20
2023-05-02T21:18:06.667Z,45.47
2023-05-02T21:20:34.444Z,45.54
2023-05-02T21:23:01.599Z,45.64
2023-05-02T21:25:28.407Z,45.66
2023-05-02T21:27:55.947Z,45.82
2023-05-02T21:30:23.769Z,46.11
2023-05-02T21:32:50.470Z,46.27
2023-05-02T21:35:17.108Z,46.32
2023-05-02T21:37:43.793Z,46.58
2023-05-02T21:40:11.184Z,46.63
2023-05-02T21:42:38.148Z,46.70
2023-05-02T21:45:06.077Z,46.76
2023-05-02T21:47:33.279Z,46.93
2023-05-02T21:50:00.182Z,47.06
2023-05-02T21:52:27.612Z,47.00
2023-05-02T21:54:54.208Z,47.03
2023-05-02T21:57:20.858Z,47.26
2023-05-02T21:59:47.561Z,47.32
2023-05-02T22:02:14.231Z,47.47
2023-05-02T22:04:40.973Z,47.57
2023-05-02T22:07:07.565Z,47.63
2023-05-02T22:09:34.166Z,47.82
2023-05-02T22:12:02.402Z,47.77
2023-05-02T22:14:37.487Z,48.09
2023-05-02T22:17:11.136Z,48.07
2023-05-02T22:19:38.780Z,48.29
2023-05-02T22:22:05.964Z,48.40
2023-05-02T22:24:33.249Z,48.46
2023-05-02T22:26:59.905Z,48.60
2023-05-02T22:29:26.504Z,48.80
2023-05-02T22:31:53.112Z,48.80
2023-05-02T22:34:19.819Z,48.92
2023-05-02T22:36:46.756Z,48.86
2023-05-02T22:39:14.947Z,48.86
2023-05-02T22:41:42.026Z,48.88
2023-05-02T22:44:08.660Z,48.91
2023-05-02T22:46:37.469Z,48.99
2023-05-02T22:49:05.651Z,48.91
2023-05-02T22:51:32.832Z,49.01
2023-05-02T22:53:59.900Z,48.88
2023-05-02T22:56:26.560Z,48.82
2023-05-02T22:58:53.165Z,48.60
2023-05-02T23:01:19.869Z,48.55
2023-05-02T23:03:46.589Z,48.53
2023-05-02T23:06:13.795Z,48.48
2023-05-02T23:08:40.471Z,48.29
2023-05-02T23:11:07.080Z,48.04
2023-05-02T23:13:34.467Z,47.83
2023-05-02T23:16:01.300Z,47.86
2023-05-02T23:18:28.164Z,47.64
2023-05-02T23:20:54.889Z,47.59
2023-05-02T23:23:21.901Z,47.63
2023-05-02T23:25:48.609Z,47.55
2023-05-02T23:28:16.853Z,47.54
2023-05-02T23:30:43.625Z,47.42
2023-05-02T23:33:10.530Z,47.39
2023-05-02T23:35:37.155Z,47.32
2023-05-02T23:38:07.479Z,47.53
2023-05-02T23:40:34.202Z,47.52
2023-05-02T23:43:00.793Z,47.55
2023-05-02T23:45:27.738Z,47.56
2023-05-02T23:47:54.545Z,47.48
2023-05-02T23:50:21.201Z,47.52
2023-05-02T23:52:48.041Z,47.48
2023-05-02T23:55:14.791Z,47.50
2023-05-02T23:57:42.017Z,47.35
